Time,TemperatureF,DewpointF,PressureIn,WindDirection,WindDirectionDegrees,WindSpeedMPH,WindSpeedGustMPH,Humidity,HourlyPrecipIn,Conditions,Clouds,dailyrainin,SoftwareType,DateUTC
2013-02-09 00:00:00,18.7,9.2,30.16,NNE,15,0.0,0.0,66,0.00,,,0.00,VWS V14.00,2013-02-09 05:00:00,
2013-02-09 00:02:00,18.7,9.2,30.16,NNE,15,0.0,0.0,66,0.00,,,0.00,VWS V14.00,2013-02-09 05:02:00,
2013-02-09 00:03:00,18.5,9.1,30.16,NNE,15,0.0,0.0,66,0.00,,,0.00,VWS V14.00,2013-02-09 05:03:00,
2013-02-09 00:08:00,18.3,8.9,30.16,NNE,17,0.0,0.0,66,0.00,,,0.00,VWS V14.00,2013-02-09 05:08:00,
2013-02-09 00:14:00,18.0,8.9,30.16,NNE,17,0.0,0.0,67,0.00,,,0.00,VWS V14.00,2013-02-09 05:14:00,
2013-02-09 00:19:00,17.6,8.5,30.16,NNE,17,0.0,0.0,67,0.00,,,0.00,VWS V14.00,2013-02-09 05:19:00,
2013-02-09 00:25:00,17.2,8.2,30.16,NNE,17,0.0,0.0,67,0.00,,,0.00,VWS V14.00,2013-02-09 05:25:00,
2013-02-09 00:30:00,17.1,8.0,30.16,NNE,17,0.0,0.0,67,0.00,,,0.00,VWS V14.00,2013-02-09 05:30:00,
2013-02-09 00:36:00,16.9,8.2,30.16,NNE,17,0.0,0.0,68,0.00,,,0.00,VWS V14.00,2013-02-09 05:36:00,
2013-02-09 00:41:00,16.9,8.2,30.16,NNE,17,0.0,0.0,68,0.00,,,0.00,VWS V14.00,2013-02-09 05:41:00,
2013-02-09 00:46:00,16.7,8.0,30.16,NNE,17,0.0,0.0,68,0.00,,,0.00,VWS V14.00,2013-02-09 05:46:00,
2013-02-09 00:52:00,16.3,7.3,30.16,NNE,17,0.0,0.0,67,0.00,,,0.00,VWS V14.00,2013-02-09 05:52:00,
2013-02-09 00:57:00,16.3,7.3,30.16,NNE,17,0.0,0.0,67,0.00,,,0.00,VWS V14.00,2013-02-09 05:57:00,
2013-02-09 01:02:00,16.2,7.2,30.16,NNE,17,0.0,0.0,67,0.00,,,0.00,VWS V14.00,2013-02-09 06:02:00,
2013-02-09 01:08:00,16.0,7.0,30.16,NNE,17,0.0,0.0,67,0.00,,,0.00,VWS V14.00,2013-02-09 06:08:00,
2013-02-09 01:14:00,15.8,6.8,30.16,NNE,17,0.0,0.0,67,0.00,,,0.00,VWS V14.00,2013-02-09 06:14:00,
2013-02-09 01:19:00,15.8,6.8,30.16,NNE,17,0.0,0.0,67,0.00,,,0.00,VWS V14.00,2013-02-09 06:19:00,
2013-02-09 01:24:00,15.4,6.5,30.16,NNE,17,0.0,0.0,67,0.00,,,0.00,VWS V14.00,2013-02-09 06:24:00,
2013-02-09 01:29:00,15.4,6.5,30.16,NNE,17,0.0,0.0,67,0.00,,,0.00,VWS V14.00,2013-02-09 06:29:00,
2013-02-09 01:35:00,15.1,5.8,30.16,NNE,17,0.0,0.0,66,0.00,,,0.00,VWS V14.00,2013-02-09 06:35:00,
2013-02-09 01:41:00,15.1,5.8,30.16,NNE,17,0.0,0.0,66,0.00,,,0.00,VWS V14.00,2013-02-09 06:41:00,
2013-02-09 01:46:00,14.9,5.6,30.16,NNE,17,0.0,0.0,66,0.00,,,0.00,VWS V14.00,2013-02-09 06:46:00,
2013-02-09 01:52:00,14.7,5.4,30.16,NNE,17,0.0,0.0,66,0.00,,,0.00,VWS V14.00,2013-02-09 06:52:00,
2013-02-09 01:57:00,14.5,5.3,30.16,NNE,17,0.0,0.0,66,0.00,,,0.00,VWS V14.00,2013-02-09 06:57:00,
2013-02-09 02:02:00,14.5,4.9,30.16,NNE,18,0.0,0.0,65,0.00,,,0.00,VWS V14.00,2013-02-09 07:02:00,
2013-02-09 02:07:00,14.4,4.8,30.16,NNE,17,0.0,0.0,65,0.00,,,0.00,VWS V14.00,2013-02-09 07:07:00,
2013-02-09 02:12:00,14.2,4.6,30.13,NNE,17,0.0,0.0,65,0.00,,,0.00,VWS V14.00,2013-02-09 07:12:00,
2013-02-09 02:17:00,14.0,4.4,30.13,NNE,17,0.0,0.0,65,0.00,,,0.00,VWS V14.00,2013-02-09 07:17:00,
2013-02-09 02:23:00,13.8,4.2,30.13,NNE,18,0.0,0.0,65,0.00,,,0.00,VWS V14.00,2013-02-09 07:23:00,
2013-02-09 02:28:00,13.6,4.1,30.13,NNE,17,0.0,0.0,65,0.00,,,0.00,VWS V14.00,2013-02-09 07:28:00,
2013-02-09 02:33:00,13.5,3.9,30.13,NNE,18,0.0,0.0,65,0.00,,,0.00,VWS V14.00,2013-02-09 07:33:00,
2013-02-09 02:39:00,13.3,3.7,30.13,NNE,17,0.0,0.0,65,0.00,,,0.00,VWS V14.00,2013-02-09 07:39:00,
2013-02-09 02:45:00,13.1,3.6,30.13,NNE,17,0.0,0.0,65,0.00,,,0.00,VWS V14.00,2013-02-09 07:45:00,
2013-02-09 02:50:00,12.9,3.4,30.13,NNE,17,0.0,0.0,65,0.00,,,0.00,VWS V14.00,2013-02-09 07:50:00,
2013-02-09 02:56:00,12.9,3.4,30.13,NNE,17,0.0,0.0,65,0.00,,,0.00,VWS V14.00,2013-02-09 07:56:00,
2013-02-09 03:01:00,12.7,3.2,30.13,NNE,17,0.0,0.0,65,0.00,,,0.00,VWS V14.00,2013-02-09 08:01:00,
2013-02-09 03:06:00,12.7,3.2,30.13,NNE,17,0.0,0.0,65,0.00,,,0.00,VWS V14.00,2013-02-09 08:06:00,
2013-02-09 03:11:00,12.4,2.9,30.13,NNE,17,0.0,0.0,65,0.00,,,0.00,VWS V14.00,2013-02-09 08:11:00,
2013-02-09 03:17:00,12.2,2.7,30.13,NNE,17,0.0,0.0,65,0.00,,,0.00,VWS V14.00,2013-02-09 08:17:00,
2013-02-09 03:23:00,11.8,2.4,30.13,NNE,17,0.0,0.0,65,0.00,,,0.00,VWS V14.00,2013-02-09 08:23:00,
2013-02-09 03:28:00,11.8,2.4,30.16,NNE,17,0.0,0.0,65,0.00,,,0.00,VWS V14.00,2013-02-09 08:28:00,
2013-02-09 03:33:00,11.7,2.2,30.16,NNE,17,0.0,0.0,65,0.00,,,0.00,VWS V14.00,2013-02-09 08:33:00,
2013-02-09 03:38:00,11.7,2.2,30.16,NNE,17,0.0,0.0,65,0.00,,,0.00,VWS V14.00,2013-02-09 08:38:00,
2013-02-09 03:43:00,11.5,2.0,30.16,NNE,17,0.0,0.0,65,0.00,,,0.00,VWS V14.00,2013-02-09 08:43:00,
2013-02-09 03:48:00,11.3,1.8,30.16,NNE,17,0.0,0.0,65,0.00,,,0.00,VWS V14.00,2013-02-09 08:48:00,
2013-02-09 03:54:00,11.3,1.8,30.16,NNE,17,0.0,0.0,65,0.00,,,0.00,VWS V14.00,2013-02-09 08:54:00,
2013-02-09 03:59:00,11.1,1.7,30.16,NNE,17,0.0,0.0,65,0.00,,,0.00,VWS V14.00,2013-02-09 08:59:00,
2013-02-09 04:05:00,10.9,1.5,30.16,NNE,17,0.0,0.0,65,0.00,,,0.00,VWS V14.00,2013-02-09 09:05:00,
2013-02-09 04:10:00,10.9,1.5,30.16,NNE,17,0.0,0.0,65,0.00,,,0.00,VWS V14.00,2013-02-09 09:10:00,
2013-02-09 04:15:00,10.8,1.3,30.16,NNE,17,0.0,0.0,65,0.00,,,0.00,VWS V14.00,2013-02-09 09:15:00,
2013-02-09 04:20:00,10.8,1.3,30.16,NNE,17,0.0,0.0,65,0.00,,,0.00,VWS V14.00,2013-02-09 09:20:00,
2013-02-09 04:25:00,10.4,1.0,30.16,NNE,17,0.0,0.0,65,0.00,,,0.00,VWS V14.00,2013-02-09 09:25:00,
2013-02-09 04:30:00,10.4,1.0,30.16,NNE,17,0.0,0.0,65,0.00,,,0.00,VWS V14.00,2013-02-09 09:30:00,
2013-02-09 04:35:00,10.2,0.8,30.16,NNE,17,0.0,0.0,65,0.00,,,0.00,VWS V14.00,2013-02-09 09:35:00,
2013-02-09 04:41:00,10.0,0.6,30.16,NNE,17,0.0,0.0,65,0.00,,,0.00,VWS V14.00,2013-02-09 09:41:00,
2013-02-09 04:46:00,10.0,0.6,30.16,NNE,17,0.0,0.0,65,0.00,,,0.00,VWS V14.00,2013-02-09 09:46:00,
2013-02-09 04:51:00,9.9,0.5,30.16,NNE,17,0.0,0.0,65,0.00,,,0.00,VWS V14.00,2013-02-09 09:51:00,
2013-02-09 04:57:00,9.7,0.3,30.16,NNE,17,0.0,0.0,65,0.00,,,0.00,VWS V14.00,2013-02-09 09:57:00,
2013-02-09 05:02:00,9.5,0.1,30.16,NNE,17,0.0,0.0,65,0.00,,,0.00,VWS V14.00,2013-02-09 10:02:00,
2013-02-09 05:08:00,9.5,0.1,30.16,NNE,17,0.0,0.0,65,0.00,,,0.00,VWS V14.00,2013-02-09 10:08:00,
2013-02-09 05:13:00,9.3,-0.1,30.16,NNE,17,0.0,0.0,65,0.00,,,0.00,VWS V14.00,2013-02-09 10:13:00,
2013-02-09 05:19:00,9.1,-0.2,30.16,NNE,17,0.0,0.0,65,0.00,,,0.00,VWS V14.00,2013-02-09 10:19:00,
2013-02-09 05:25:00,9.1,-0.2,30.16,NNE,17,0.0,0.0,65,0.00,,,0.00,VWS V14.00,2013-02-09 10:25:00,
2013-02-09 05:30:00,9.0,-0.4,30.16,NNE,17,0.0,0.0,65,0.00,,,0.00,VWS V14.00,2013-02-09 10:30:00,
2013-02-09 05:36:00,8.8,-0.6,30.16,NNE,17,0.0,0.0,65,0.00,,,0.00,VWS V14.00,2013-02-09 10:36:00,
2013-02-09 05:41:00,8.6,-0.7,30.16,NNE,17,0.0,0.0,65,0.00,,,0.00,VWS V14.00,2013-02-09 10:41:00,
2013-02-09 05:47:00,8.6,-0.7,30.16,NNE,17,0.0,0.0,65,0.00,,,0.00,VWS V14.00,2013-02-09 10:47:00,
2013-02-09 05:53:00,8.6,-0.7,30.16,NNE,17,0.0,0.0,65,0.00,,,0.00,VWS V14.00,2013-02-09 10:53:00,
2013-02-09 05:58:00,8.2,-1.1,30.16,NNE,17,0.0,0.0,65,0.00,,,0.00,VWS V14.00,2013-02-09 10:58:00,
2013-02-09 06:04:00,8.1,-1.2,30.16,NNE,17,0.0,0.0,65,0.00,,,0.00,VWS V14.00,2013-02-09 11:04:00,
2013-02-09 06:09:00,7.9,-1.4,30.16,NNE,17,0.0,0.0,65,0.00,,,0.00,VWS V14.00,2013-02-09 11:09:00,
2013-02-09 06:15:00,7.9,-1.4,30.16,NNE,17,0.0,0.0,65,0.00,,,0.00,VWS V14.00,2013-02-09 11:15:00,
2013-02-09 06:20:00,7.7,-1.6,30.16,NNE,17,0.0,0.0,65,0.00,,,0.00,VWS V14.00,2013-02-09 11:20:00,
2013-02-09 06:25:00,7.7,-1.6,30.16,NNE,17,0.0,0.0,65,0.00,,,0.00,VWS V14.00,2013-02-09 11:25:00,
2013-02-09 06:30:00,7.7,-1.6,30.16,NNE,17,0.0,0.0,65,0.00,,,0.00,VWS V14.00,2013-02-09 11:30:00,
2013-02-09 06:35:00,7.5,-1.8,30.16,NNE,17,0.0,0.0,65,0.00,,,0.00,VWS V14.00,2013-02-09 11:35:00,
2013-02-09 06:40:00,7.3,-1.9,30.16,NNE,17,0.0,0.0,65,0.00,,,0.00,VWS V14.00,2013-02-09 11:40:00,
2013-02-09 06:45:00,7.3,-1.9,30.16,NNE,17,0.0,0.0,65,0.00,,,0.00,VWS V14.00,2013-02-09 11:45:00,
2013-02-09 06:50:00,7.2,-2.1,30.16,NNE,17,0.0,0.0,65,0.00,,,0.00,VWS V14.00,2013-02-09 11:50:00,
2013-02-09 06:56:00,7.0,-2.3,30.16,NNE,17,0.0,0.0,65,0.00,,,0.00,VWS V14.00,2013-02-09 11:56:00,
2013-02-09 07:01:00,7.0,-2.3,30.16,NNE,17,0.0,0.0,65,0.00,,,0.00,VWS V14.00,2013-02-09 12:01:00,
2013-02-09 07:06:00,7.0,-2.3,30.16,NNE,17,0.0,0.0,65,0.00,,,0.00,VWS V14.00,2013-02-09 12:06:00,
2013-02-09 07:11:00,6.8,-2.5,30.16,NNE,17,0.0,0.0,65,0.00,,,0.00,VWS V14.00,2013-02-09 12:11:00,
2013-02-09 07:17:00,6.6,-2.6,30.16,NNE,17,0.0,0.0,65,0.00,,,0.00,VWS V14.00,2013-02-09 12:17:00,
2013-02-09 07:22:00,6.4,-2.8,30.16,NNE,17,0.0,0.0,65,0.00,,,0.00,VWS V14.00,2013-02-09 12:22:00,
2013-02-09 07:28:00,6.4,-2.8,30.16,NNE,17,0.0,0.0,65,0.00,,,0.00,VWS V14.00,2013-02-09 12:28:00,
2013-02-09 07:33:00,6.3,-3.0,30.16,NNE,17,0.0,0.0,65,0.00,,,0.00,VWS V14.00,2013-02-09 12:33:00,
2013-02-09 07:39:00,6.3,-3.0,30.16,NNE,17,0.0,0.0,65,0.00,,,0.00,VWS V14.00,2013-02-09 12:39:00,
2013-02-09 07:44:00,6.3,-3.0,30.16,NNE,17,0.0,0.0,65,0.00,,,0.00,VWS V14.00,2013-02-09 12:44:00,
2013-02-09 07:50:00,6.3,-3.0,30.16,NNE,17,0.0,0.0,65,0.00,,,0.00,VWS V14.00,2013-02-09 12:50:00,
2013-02-09 07:55:00,6.3,-3.0,30.16,NNE,17,0.0,0.0,65,0.00,,,0.00,VWS V14.00,2013-02-09 12:55:00,
2013-02-09 08:00:00,6.3,-3.0,30.19,NNE,17,0.0,0.0,65,0.00,,,0.00,VWS V14.00,2013-02-09 13:00:00,
2013-02-09 08:06:00,6.1,-3.2,30.19,NNE,17,0.0,0.0,65,0.00,,,0.00,VWS V14.00,2013-02-09 13:06:00,
2013-02-09 08:12:00,6.1,-3.2,30.19,NNE,17,0.0,0.0,65,0.00,,,0.00,VWS V14.00,2013-02-09 13:12:00,
2013-02-09 08:18:00,6.1,-3.2,30.19,NNE,17,0.0,0.0,65,0.00,,,0.00,VWS V14.00,2013-02-09 13:18:00,
2013-02-09 08:23:00,6.1,-3.2,30.19,NNE,17,0.0,0.0,65,0.00,,,0.00,VWS V14.00,2013-02-09 13:23:00,
2013-02-09 08:28:00,6.1,-3.2,30.19,NNE,17,0.0,0.0,65,0.00,,,0.00,VWS V14.00,2013-02-09 13:28:00,
2013-02-09 08:33:00,6.1,-3.2,30.19,NNE,18,0.0,0.0,65,0.00,,,0.00,VWS V14.00,2013-02-09 13:33:00,
2013-02-09 08:39:00,6.3,-3.0,30.19,NNE,17,0.0,0.0,65,0.00,,,0.00,VWS V14.00,2013-02-09 13:39:00,
2013-02-09 08:44:00,6.4,-2.8,30.19,NNE,18,0.0,0.0,65,0.00,,,0.00,VWS V14.00,2013-02-09 13:44:00,
2013-02-09 08:49:00,6.8,-2.5,30.19,NNE,17,0.0,0.0,65,0.00,,,0.00,VWS V14.00,2013-02-09 13:49:00,
2013-02-09 08:55:00,7.0,-2.3,30.19,NNE,17,0.0,0.0,65,0.00,,,0.00,VWS V14.00,2013-02-09 13:55:00,
2013-02-09 09:00:00,7.2,-2.1,30.19,NNE,17,0.0,0.0,65,0.00,,,0.00,VWS V14.00,2013-02-09 14:00:00,
2013-02-09 09:06:00,7.5,-1.8,30.19,NNE,18,0.0,0.0,65,0.00,,,0.00,VWS V14.00,2013-02-09 14:06:00,
2013-02-09 09:11:00,7.9,-1.4,30.19,NNE,17,0.0,0.0,65,0.00,,,0.00,VWS V14.00,2013-02-09 14:11:00,
2013-02-09 09:17:00,8.1,-1.2,30.19,NNE,17,0.0,0.0,65,0.00,,,0.00,VWS V14.00,2013-02-09 14:17:00,
2013-02-09 09:22:00,8.8,-0.6,30.19,NNE,17,0.0,0.0,65,0.00,,,0.00,VWS V14.00,2013-02-09 14:22:00,
2013-02-09 09:28:00,9.3,-0.1,30.19,NNE,17,0.0,0.0,65,0.00,,,0.00,VWS V14.00,2013-02-09 14:28:00,
2013-02-09 09:34:00,9.9,0.5,30.19,NNE,17,0.0,0.0,65,0.00,,,0.00,VWS V14.00,2013-02-09 14:34:00,
2013-02-09 09:39:00,10.4,1.0,30.19,NNE,17,0.0,0.0,65,0.00,,,0.00,VWS V14.00,2013-02-09 14:39:00,
2013-02-09 09:45:00,11.3,1.8,30.19,NNE,17,0.0,0.0,65,0.00,,,0.00,VWS V14.00,2013-02-09 14:45:00,
2013-02-09 09:50:00,12.0,2.5,30.19,NNW,345,0.0,0.0,65,0.00,,,0.00,VWS V14.00,2013-02-09 14:50:00,
2013-02-09 09:55:00,12.2,2.7,30.19,North,1,0.0,0.0,65,0.00,,,0.00,VWS V14.00,2013-02-09 14:55:00,
2013-02-09 10:00:00,13.3,3.7,30.19,North,350,0.0,0.0,65,0.00,,,0.00,VWS V14.00,2013-02-09 15:00:00,
2013-02-09 10:05:00,13.8,4.2,30.19,NNE,21,2.2,2.2,65,0.00,,,0.00,VWS V14.00,2013-02-09 15:05:00,
2013-02-09 10:11:00,14.5,10.3,30.19,NNW,346,0.0,0.0,83,0.00,,,0.00,VWS V14.00,2013-02-09 15:11:00,
2013-02-09 10:16:00,15.4,11.8,30.19,SE,146,0.0,0.0,85,0.00,,,0.00,VWS V14.00,2013-02-09 15:16:00,
2013-02-09 10:21:00,15.8,12.1,30.19,NW,326,0.0,0.0,85,0.00,,,0.00,VWS V14.00,2013-02-09 15:21:00,
2013-02-09 10:26:00,16.7,13.2,30.19,NNW,342,0.0,0.0,86,0.00,,,0.00,VWS V14.00,2013-02-09 15:26:00,
2013-02-09 10:32:00,17.1,13.6,30.19,East,85,0.0,2.2,86,0.00,,,0.00,VWS V14.00,2013-02-09 15:32:00,
2013-02-09 10:38:00,17.8,14.3,30.19,NNW,339,0.0,0.0,86,0.00,,,0.00,VWS V14.00,2013-02-09 15:38:00,
2013-02-09 10:43:00,18.5,15.3,30.19,NNE,27,0.0,0.0,87,0.00,,,0.00,VWS V14.00,2013-02-09 15:43:00,
2013-02-09 10:48:00,18.7,15.5,30.19,SSE,167,0.0,2.7,87,0.00,,,0.00,VWS V14.00,2013-02-09 15:48:00,
2013-02-09 10:54:00,19.9,16.4,30.19,SE,132,0.0,0.0,86,0.00,,,0.00,VWS V14.00,2013-02-09 15:54:00,
2013-02-09 10:59:00,20.3,16.8,30.19,NNW,345,2.2,2.2,86,0.00,,,0.00,VWS V14.00,2013-02-09 15:59:00,
2013-02-09 11:05:00,20.8,17.3,30.19,NW,317,2.7,2.7,86,0.00,,,0.00,VWS V14.00,2013-02-09 16:05:00,
2013-02-09 11:10:00,21.4,17.6,30.16,NNW,348,2.2,2.7,85,0.00,,,0.00,VWS V14.00,2013-02-09 16:10:00,
2013-02-09 11:16:00,21.9,17.8,30.16,NNE,28,0.0,2.7,84,0.00,,,0.00,VWS V14.00,2013-02-09 16:16:00,
2013-02-09 11:21:00,22.5,17.8,30.16,NNW,331,0.0,0.0,82,0.00,,,0.00,VWS V14.00,2013-02-09 16:21:00,
2013-02-09 11:26:00,22.8,18.2,30.16,NNW,327,2.7,2.7,82,0.00,,,0.00,VWS V14.00,2013-02-09 16:26:00,
2013-02-09 11:31:00,23.2,18.2,30.16,North,357,3.1,3.1,81,0.00,,,0.00,VWS V14.00,2013-02-09 16:31:00,
2013-02-09 11:36:00,24.3,19.0,30.16,NNE,14,0.0,0.0,80,0.00,,,0.00,VWS V14.00,2013-02-09 16:36:00,
2013-02-09 11:41:00,25.0,19.1,30.16,NNW,335,0.0,2.7,78,0.00,,,0.00,VWS V14.00,2013-02-09 16:41:00,
2013-02-09 11:46:00,25.5,19.3,30.16,WNW,301,2.7,2.7,77,0.00,,,0.00,VWS V14.00,2013-02-09 16:46:00,
2013-02-09 11:51:00,26.1,19.9,30.16,NW,313,2.2,3.6,77,0.00,,,0.00,VWS V14.00,2013-02-09 16:51:00,
2013-02-09 11:56:00,26.8,19.9,30.16,North,353,2.2,2.2,75,0.00,,,0.00,VWS V14.00,2013-02-09 16:56:00,
2013-02-09 12:02:00,27.9,20.0,30.16,ENE,61,3.1,3.1,72,0.00,,,0.00,VWS V14.00,2013-02-09 17:02:00,
2013-02-09 12:07:00,28.8,20.2,30.16,South,169,2.7,3.1,70,0.00,,,0.00,VWS V14.00,2013-02-09 17:07:00,
2013-02-09 12:13:00,30.0,20.8,30.16,WNW,298,3.1,3.1,68,0.00,,,0.00,VWS V14.00,2013-02-09 17:13:00,
2013-02-09 12:18:00,30.4,20.8,30.16,North,349,3.1,3.1,67,0.00,,,0.00,VWS V14.00,2013-02-09 17:18:00,
2013-02-09 12:23:00,30.4,20.8,30.16,NNE,15,2.2,3.1,67,0.00,,,0.00,VWS V14.00,2013-02-09 17:23:00,
2013-02-09 12:29:00,32.4,21.2,30.16,NW,313,2.7,2.7,63,0.00,,,0.00,VWS V14.00,2013-02-09 17:29:00,
2013-02-09 12:34:00,32.7,21.1,30.16,NNE,26,2.2,2.2,62,0.00,,,0.00,VWS V14.00,2013-02-09 17:34:00,
2013-02-09 12:40:00,33.3,20.9,30.16,West,268,2.2,2.2,60,0.00,,,0.00,VWS V14.00,2013-02-09 17:40:00,
2013-02-09 12:46:00,33.8,20.6,30.13,SSW,200,3.1,3.1,58,0.00,,,0.00,VWS V14.00,2013-02-09 17:46:00,
2013-02-09 12:51:00,34.3,20.3,30.13,East,101,2.7,2.7,56,0.00,,,0.00,VWS V14.00,2013-02-09 17:51:00,
2013-02-09 12:57:00,34.7,20.2,30.13,SSE,158,0.0,3.1,55,0.00,,,0.00,VWS V14.00,2013-02-09 17:57:00,
2013-02-09 13:02:00,35.2,20.7,30.13,SSW,207,5.4,5.4,55,0.04,,,0.04,VWS V14.00,2013-02-09 18:02:00,
2013-02-09 13:08:00,35.8,20.8,30.13,South,179,2.7,2.7,54,0.04,,,0.04,VWS V14.00,2013-02-09 18:08:00,
2013-02-09 13:13:00,36.1,21.1,30.13,North,357,2.2,2.7,54,0.04,,,0.04,VWS V14.00,2013-02-09 18:13:00,
2013-02-09 13:19:00,36.3,20.8,30.13,SW,232,4.0,4.0,53,0.04,,,0.04,VWS V14.00,2013-02-09 18:19:00,
2013-02-09 13:25:00,36.9,20.9,30.13,West,262,2.7,2.7,52,0.04,,,0.04,VWS V14.00,2013-02-09 18:25:00,
2013-02-09 13:30:00,37.0,21.1,30.13,NE,39,2.2,2.2,52,0.04,,,0.04,VWS V14.00,2013-02-09 18:30:00,
2013-02-09 13:35:00,37.4,20.9,30.10,North,4,2.2,3.1,51,0.04,,,0.04,VWS V14.00,2013-02-09 18:35:00,
2013-02-09 13:40:00,37.6,21.1,30.10,SE,136,0.0,2.7,51,0.04,,,0.04,VWS V14.00,2013-02-09 18:40:00,
2013-02-09 13:45:00,38.1,21.6,30.10,NW,315,2.2,2.2,51,0.08,,,0.08,VWS V14.00,2013-02-09 18:45:00,
2013-02-09 13:50:00,38.3,21.8,30.10,South,171,2.7,4.0,51,0.08,,,0.08,VWS V14.00,2013-02-09 18:50:00,
2013-02-09 13:55:00,38.5,21.5,30.10,NNW,343,2.7,2.7,50,0.08,,,0.08,VWS V14.00,2013-02-09 18:55:00,
2013-02-09 14:01:00,38.7,21.6,30.10,NNW,328,3.1,3.6,50,0.08,,,0.08,VWS V14.00,2013-02-09 19:01:00,
2013-02-09 14:06:00,38.7,21.6,30.10,WNW,296,3.1,3.1,50,0.04,,,0.08,VWS V14.00,2013-02-09 19:06:00,
2013-02-09 14:11:00,38.8,21.8,30.10,SE,127,2.7,2.7,50,0.04,,,0.08,VWS V14.00,2013-02-09 19:11:00,
2013-02-09 14:17:00,39.2,21.7,30.10,NNE,30,3.1,3.1,49,0.04,,,0.08,VWS V14.00,2013-02-09 19:17:00,
2013-02-09 14:22:00,39.4,21.8,30.10,North,353,3.1,3.1,49,0.04,,,0.08,VWS V14.00,2013-02-09 19:22:00,
2013-02-09 14:28:00,39.4,21.8,30.07,SSW,212,3.6,3.6,49,0.04,,,0.08,VWS V14.00,2013-02-09 19:28:00,
2013-02-09 14:33:00,39.9,22.3,30.07,NNW,338,3.1,3.1,49,0.08,,,0.12,VWS V14.00,2013-02-09 19:33:00,
2013-02-09 14:38:00,39.9,22.3,30.07,South,183,3.1,3.1,49,0.08,,,0.12,VWS V14.00,2013-02-09 19:38:00,
2013-02-09 14:43:00,39.9,22.3,30.07,ESE,102,3.6,3.6,49,0.04,,,0.12,VWS V14.00,2013-02-09 19:43:00,
2013-02-09 14:49:00,40.3,22.7,30.07,North,357,2.7,2.7,49,0.04,,,0.12,VWS V14.00,2013-02-09 19:49:00,
2013-02-09 14:54:00,40.5,22.8,30.07,WNW,297,2.7,2.7,49,0.04,,,0.12,VWS V14.00,2013-02-09 19:54:00,
2013-02-09 14:59:00,40.5,22.8,30.07,NNW,332,2.7,2.7,49,0.04,,,0.12,VWS V14.00,2013-02-09 19:59:00,
2013-02-09 15:04:00,40.6,23.0,30.07,North,357,2.2,2.7,49,0.04,,,0.12,VWS V14.00,2013-02-09 20:04:00,
2013-02-09 15:10:00,40.6,23.0,30.07,North,353,4.0,4.9,49,0.04,,,0.12,VWS V14.00,2013-02-09 20:10:00,
2013-02-09 15:15:00,40.6,23.0,30.07,WNW,298,2.7,2.7,49,0.04,,,0.12,VWS V14.00,2013-02-09 20:15:00,
2013-02-09 15:21:00,41.0,22.8,30.07,East,81,3.1,3.1,48,0.04,,,0.12,VWS V14.00,2013-02-09 20:21:00,
2013-02-09 15:26:00,41.2,23.0,30.07,NNW,345,3.1,3.6,48,0.04,,,0.12,VWS V14.00,2013-02-09 20:26:00,
2013-02-09 15:32:00,40.8,22.7,30.07,North,357,2.7,4.0,48,0.08,,,0.16,VWS V14.00,2013-02-09 20:32:00,
2013-02-09 15:37:00,40.6,22.5,30.07,NNE,16,3.1,3.1,48,0.04,,,0.16,VWS V14.00,2013-02-09 20:37:00,
2013-02-09 15:42:00,41.0,22.8,30.04,West,280,3.6,3.6,48,0.04,,,0.16,VWS V14.00,2013-02-09 20:42:00,
2013-02-09 15:47:00,40.8,22.7,30.04,NW,323,3.1,3.1,48,0.04,,,0.16,VWS V14.00,2013-02-09 20:47:00,
2013-02-09 15:53:00,40.5,22.3,30.04,NW,320,3.6,3.6,48,0.04,,,0.16,VWS V14.00,2013-02-09 20:53:00,
2013-02-09 15:58:00,40.5,22.3,30.07,SSW,193,3.6,4.0,48,0.04,,,0.16,VWS V14.00,2013-02-09 20:58:00,
2013-02-09 16:03:00,40.5,22.8,30.07,SSW,201,4.9,4.9,49,0.04,,,0.16,VWS V14.00,2013-02-09 21:03:00,
2013-02-09 16:09:00,40.8,23.1,30.07,SW,214,3.6,3.6,49,0.04,,,0.16,VWS V14.00,2013-02-09 21:09:00,
2013-02-09 16:14:00,41.2,23.0,30.04,WNW,290,2.2,2.2,48,0.04,,,0.16,VWS V14.00,2013-02-09 21:14:00,
2013-02-09 16:20:00,41.0,22.8,30.04,SSW,208,3.1,3.6,48,0.04,,,0.16,VWS V14.00,2013-02-09 21:20:00,
2013-02-09 16:25:00,40.8,22.7,30.04,SSE,160,3.1,7.6,48,0.04,,,0.16,VWS V14.00,2013-02-09 21:25:00,
2013-02-09 16:30:00,40.6,23.0,30.04,WSW,250,0.0,3.6,49,0.00,,,0.16,VWS V14.00,2013-02-09 21:30:00,
2013-02-09 16:35:00,40.5,22.8,30.04,South,187,4.0,4.0,49,0.00,,,0.16,VWS V14.00,2013-02-09 21:35:00,
2013-02-09 16:41:00,40.5,22.3,30.04,NNW,331,3.1,3.1,48,0.00,,,0.16,VWS V14.00,2013-02-09 21:41:00,
2013-02-09 16:46:00,39.9,21.3,30.04,NNE,32,3.6,3.6,47,0.00,,,0.16,VWS V14.00,2013-02-09 21:46:00,
2013-02-09 16:51:00,39.6,21.5,30.04,SSW,208,0.0,0.0,48,0.00,,,0.16,VWS V14.00,2013-02-09 21:51:00,
2013-02-09 16:57:00,39.6,22.0,30.04,WSW,237,3.1,3.1,49,0.04,,,0.20,VWS V14.00,2013-02-09 21:57:00,
2013-02-09 17:02:00,39.6,22.0,30.04,North,1,3.1,3.1,49,0.04,,,0.20,VWS V14.00,2013-02-09 22:02:00,
2013-02-09 17:07:00,39.4,21.3,30.04,North,353,0.0,2.7,48,0.04,,,0.20,VWS V14.00,2013-02-09 22:07:00,
2013-02-09 17:13:00,39.4,21.3,30.04,WSW,240,2.7,2.7,48,0.04,,,0.20,VWS V14.00,2013-02-09 22:13:00,
2013-02-09 17:18:00,38.1,20.7,30.04,NNE,16,3.1,3.1,49,0.04,,,0.20,VWS V14.00,2013-02-09 22:18:00,
2013-02-09 17:24:00,37.6,20.2,30.04,SSE,154,0.0,2.2,49,0.04,,,0.20,VWS V14.00,2013-02-09 22:24:00,
2013-02-09 17:29:00,37.4,20.0,30.04,SSE,158,0.0,2.2,49,0.04,,,0.20,VWS V14.00,2013-02-09 22:29:00,
2013-02-09 17:35:00,37.0,20.1,30.04,SE,146,2.7,3.6,50,0.04,,,0.20,VWS V14.00,2013-02-09 22:35:00,
2013-02-09 17:40:00,36.7,19.8,30.04,NW,322,2.7,2.7,50,0.04,,,0.20,VWS V14.00,2013-02-09 22:40:00,
2013-02-09 17:45:00,36.1,19.3,30.01,SE,145,4.9,4.9,50,0.04,,,0.20,VWS V14.00,2013-02-09 22:45:00,
2013-02-09 17:50:00,35.2,18.9,30.01,WSW,244,0.0,3.1,51,0.04,,,0.20,VWS V14.00,2013-02-09 22:50:00,
2013-02-09 17:55:00,34.5,18.3,30.01,SE,135,3.6,4.5,51,0.04,,,0.20,VWS V14.00,2013-02-09 22:55:00,
2013-02-09 18:01:00,34.2,18.4,30.01,SSW,203,2.7,4.0,52,0.00,,,0.20,VWS V14.00,2013-02-09 23:01:00,
2013-02-09 18:06:00,33.6,18.3,30.01,WNW,293,0.0,2.7,53,0.00,,,0.20,VWS V14.00,2013-02-09 23:06:00,
2013-02-09 18:11:00,33.4,18.2,30.01,ESE,106,2.7,2.7,53,0.00,,,0.20,VWS V14.00,2013-02-09 23:11:00,
2013-02-09 18:17:00,32.7,17.9,30.01,ESE,113,0.0,0.0,54,0.00,,,0.20,VWS V14.00,2013-02-09 23:17:00,
2013-02-09 18:23:00,32.2,17.4,30.01,North,357,0.0,0.0,54,0.00,,,0.20,VWS V14.00,2013-02-09 23:23:00,
2013-02-09 18:28:00,32.0,17.7,30.01,SSE,162,2.7,2.7,55,0.00,,,0.20,VWS V14.00,2013-02-09 23:28:00,
2013-02-09 18:34:00,31.5,17.2,30.01,SE,132,0.0,0.0,55,0.00,,,0.20,VWS V14.00,2013-02-09 23:34:00,
2013-02-09 18:40:00,31.3,17.0,30.01,SE,141,0.0,0.0,55,0.00,,,0.20,VWS V14.00,2013-02-09 23:40:00,
2013-02-09 18:45:00,31.1,17.2,30.01,SE,141,0.0,0.0,56,0.00,,,0.20,VWS V14.00,2013-02-09 23:45:00,
2013-02-09 18:51:00,30.7,16.9,30.01,SE,141,0.0,0.0,56,0.00,,,0.20,VWS V14.00,2013-02-09 23:51:00,
2013-02-09 18:56:00,30.6,16.7,30.01,SE,141,0.0,0.0,56,0.00,,,0.20,VWS V14.00,2013-02-09 23:56:00,
2013-02-09 19:01:00,30.4,17.0,30.01,SE,141,0.0,0.0,57,0.00,,,0.20,VWS V14.00,2013-02-10 00:01:00,
2013-02-09 19:06:00,30.2,16.8,30.01,SE,142,0.0,0.0,57,0.00,,,0.20,VWS V14.00,2013-02-10 00:06:00,
2013-02-09 19:11:00,30.0,17.0,30.01,SSE,151,0.0,0.0,58,0.00,,,0.20,VWS V14.00,2013-02-10 00:11:00,
2013-02-09 19:17:00,29.7,16.7,30.01,WSW,247,0.0,2.2,58,0.00,,,0.20,VWS V14.00,2013-02-10 00:17:00,
2013-02-09 19:22:00,29.5,16.9,30.01,West,267,0.0,0.0,59,0.00,,,0.20,VWS V14.00,2013-02-10 00:22:00,
2013-02-09 19:27:00,29.3,16.8,30.01,WNW,284,0.0,2.7,59,0.00,,,0.20,VWS V14.00,2013-02-10 00:27:00,
2013-02-09 19:32:00,29.1,17.0,30.01,West,259,0.0,0.0,60,0.00,,,0.20,VWS V14.00,2013-02-10 00:32:00,
2013-02-09 19:37:00,28.9,16.8,30.01,West,260,0.0,2.7,60,0.00,,,0.20,VWS V14.00,2013-02-10 00:37:00,
2013-02-09 19:43:00,28.8,16.6,30.01,West,260,0.0,0.0,60,0.00,,,0.20,VWS V14.00,2013-02-10 00:43:00,
2013-02-09 19:48:00,28.6,16.5,30.01,West,260,0.0,0.0,60,0.00,,,0.20,VWS V14.00,2013-02-10 00:48:00,
2013-02-09 19:53:00,28.6,16.9,30.01,West,265,0.0,0.0,61,0.00,,,0.20,VWS V14.00,2013-02-10 00:53:00,
2013-02-09 19:58:00,28.4,16.7,30.01,West,265,0.0,0.0,61,0.00,,,0.20,VWS V14.00,2013-02-10 00:58:00,
2013-02-09 20:04:00,28.2,16.5,30.01,West,265,0.0,0.0,61,0.00,,,0.20,VWS V14.00,2013-02-10 01:04:00,
2013-02-09 20:09:00,28.0,16.3,30.01,West,265,0.0,0.0,61,0.00,,,0.20,VWS V14.00,2013-02-10 01:09:00,
2013-02-09 20:15:00,27.9,16.2,30.01,West,264,0.0,0.0,61,0.00,,,0.20,VWS V14.00,2013-02-10 01:15:00,
2013-02-09 20:20:00,27.7,16.4,30.01,West,264,0.0,0.0,62,0.00,,,0.20,VWS V14.00,2013-02-10 01:20:00,
2013-02-09 20:26:00,27.5,16.2,30.01,West,264,0.0,0.0,62,0.00,,,0.20,VWS V14.00,2013-02-10 01:26:00,
2013-02-09 20:31:00,27.3,16.4,30.01,NNW,334,0.0,0.0,63,0.00,,,0.20,VWS V14.00,2013-02-10 01:31:00,
2013-02-09 20:36:00,27.3,16.4,30.01,NNW,336,0.0,0.0,63,0.00,,,0.20,VWS V14.00,2013-02-10 01:36:00,
2013-02-09 20:42:00,27.1,16.2,30.01,NW,318,0.0,0.0,63,0.00,,,0.20,VWS V14.00,2013-02-10 01:42:00,
2013-02-09 20:47:00,27.0,16.1,29.98,NW,319,0.0,0.0,63,0.00,,,0.20,VWS V14.00,2013-02-10 01:47:00,
2013-02-09 20:52:00,27.0,16.1,29.98,NW,318,0.0,0.0,63,0.00,,,0.20,VWS V14.00,2013-02-10 01:52:00,
2013-02-09 20:57:00,27.0,16.1,30.01,NW,318,0.0,0.0,63,0.00,,,0.20,VWS V14.00,2013-02-10 01:57:00,
2013-02-09 21:02:00,27.0,16.1,30.01,NW,318,0.0,0.0,63,0.00,,,0.20,VWS V14.00,2013-02-10 02:02:00,
2013-02-09 21:08:00,27.0,16.1,30.01,NW,319,0.0,0.0,63,0.00,,,0.20,VWS V14.00,2013-02-10 02:08:00,
2013-02-09 21:13:00,26.6,16.1,30.01,NW,319,0.0,0.0,64,0.00,,,0.20,VWS V14.00,2013-02-10 02:13:00,
2013-02-09 21:18:00,26.6,16.1,30.01,NW,317,0.0,0.0,64,0.00,,,0.20,VWS V14.00,2013-02-10 02:18:00,
2013-02-09 21:24:00,26.4,15.9,30.01,NW,317,0.0,0.0,64,0.00,,,0.20,VWS V14.00,2013-02-10 02:24:00,
2013-02-09 21:29:00,26.4,15.9,30.01,NW,317,0.0,0.0,64,0.00,,,0.20,VWS V14.00,2013-02-10 02:29:00,
2013-02-09 21:35:00,26.1,15.6,30.01,NW,317,0.0,0.0,64,0.00,,,0.20,VWS V14.00,2013-02-10 02:35:00,
2013-02-09 21:40:00,25.9,15.4,30.01,NW,319,0.0,0.0,64,0.00,,,0.20,VWS V14.00,2013-02-10 02:40:00,
2013-02-09 21:45:00,25.5,15.4,30.01,NW,317,0.0,0.0,65,0.00,,,0.20,VWS V14.00,2013-02-10 02:45:00,
2013-02-09 21:51:00,25.3,15.2,30.01,NW,324,0.0,2.2,65,0.00,,,0.20,VWS V14.00,2013-02-10 02:51:00,
2013-02-09 21:57:00,25.3,15.9,30.01,NW,326,0.0,0.0,67,0.00,,,0.20,VWS V14.00,2013-02-10 02:57:00,
2013-02-09 22:03:00,25.3,16.3,30.01,NNW,329,0.0,2.7,68,0.00,,,0.20,VWS V14.00,2013-02-10 03:03:00,
2013-02-09 22:08:00,25.3,16.3,30.01,NW,305,2.2,2.2,68,0.00,,,0.20,VWS V14.00,2013-02-10 03:08:00,
2013-02-09 22:13:00,25.2,16.1,29.98,WNW,302,0.0,0.0,68,0.00,,,0.20,VWS V14.00,2013-02-10 03:13:00,
2013-02-09 22:18:00,25.2,16.4,29.98,West,272,0.0,0.0,69,0.00,,,0.20,VWS V14.00,2013-02-10 03:18:00,
2013-02-09 22:23:00,25.2,16.4,29.98,West,271,0.0,0.0,69,0.00,,,0.20,VWS V14.00,2013-02-10 03:23:00,
2013-02-09 22:28:00,25.2,16.8,29.98,West,272,0.0,0.0,70,0.00,,,0.20,VWS V14.00,2013-02-10 03:28:00,
2013-02-09 22:34:00,25.0,16.6,29.98,West,278,0.0,0.0,70,0.00,,,0.20,VWS V14.00,2013-02-10 03:34:00,
2013-02-09 22:40:00,25.0,16.6,29.98,West,276,0.0,0.0,70,0.00,,,0.20,VWS V14.00,2013-02-10 03:40:00,
2013-02-09 22:46:00,24.8,16.8,29.98,West,277,2.2,2.2,71,0.00,,,0.20,VWS V14.00,2013-02-10 03:46:00,
2013-02-09 22:51:00,24.8,16.8,29.98,West,277,0.0,0.0,71,0.00,,,0.20,VWS V14.00,2013-02-10 03:51:00,
2013-02-09 22:56:00,24.8,16.8,29.98,West,277,0.0,0.0,71,0.00,,,0.20,VWS V14.00,2013-02-10 03:56:00,
2013-02-09 23:01:00,24.8,16.8,29.98,West,278,0.0,0.0,71,0.00,,,0.20,VWS V14.00,2013-02-10 04:01:00,
2013-02-09 23:07:00,24.6,16.9,29.98,West,276,0.0,0.0,72,0.00,,,0.20,VWS V14.00,2013-02-10 04:07:00,
2013-02-09 23:12:00,24.6,16.9,29.98,West,275,0.0,0.0,72,0.00,,,0.20,VWS V14.00,2013-02-10 04:12:00,
2013-02-09 23:17:00,24.4,16.7,29.98,West,278,0.0,0.0,72,0.00,,,0.20,VWS V14.00,2013-02-10 04:17:00,
2013-02-09 23:22:00,24.4,16.7,29.98,West,277,0.0,0.0,72,0.00,,,0.20,VWS V14.00,2013-02-10 04:22:00,
2013-02-09 23:27:00,24.4,16.7,29.98,West,277,0.0,0.0,72,0.00,,,0.20,VWS V14.00,2013-02-10 04:27:00,
2013-02-09 23:32:00,24.4,16.7,29.98,West,278,0.0,0.0,72,0.00,,,0.20,VWS V14.00,2013-02-10 04:32:00,
2013-02-09 23:37:00,24.4,17.0,29.98,West,275,0.0,0.0,73,0.00,,,0.20,VWS V14.00,2013-02-10 04:37:00,
2013-02-09 23:42:00,24.4,17.0,29.98,West,278,0.0,0.0,73,0.00,,,0.20,VWS V14.00,2013-02-10 04:42:00,
2013-02-09 23:47:00,24.3,16.9,29.98,West,278,0.0,0.0,73,0.00,,,0.20,VWS V14.00,2013-02-10 04:47:00,
2013-02-09 23:52:00,24.3,16.9,29.98,West,277,0.0,0.0,73,0.00,,,0.20,VWS V14.00,2013-02-10 04:52:00,
2013-02-09 23:57:00,24.3,16.9,29.98,West,278,0.0,0.0,73,0.00,,,0.00,VWS V14.00,2013-02-10 04:57:00,